sensor_id;sensor_type;location;lat;lon;timestamp;P1;durP1;ratioP1;P2;durP2;ratioP2
12812;SDS011;6471;50.932;6.934;2023-07-30T00:00:21;1.93;;;1.73;;
12812;SDS011;6471;50.932;6.934;2023-07-30T00:02:47;1.70;;;1.50;;
12812;SDS011;6471;50.932;6.934;2023-07-30T00:05:13;1.60;;;1.50;;
12812;SDS011;6471;50.932;6.934;2023-07-30T00:07:39;1.97;;;1.53;;
12812;SDS011;6471;50.932;6.934;2023-07-30T00:10:06;1.70;;;1.60;;
12812;SDS011;6471;50.932;6.934;2023-07-30T00:12:32;1.50;;;1.40;;
12812;SDS011;6471;50.932;6.934;2023-07-30T00:14:58;1.40;;;1.30;;
12812;SDS011;6471;50.932;6.934;2023-07-30T00:17:24;1.60;;;1.50;;
12812;SDS011;6471;50.932;6.934;2023-07-30T00:19:50;1.50;;;1.30;;
12812;SDS011;6471;50.932;6.934;2023-07-30T00:22:16;1.40;;;1.30;;
12812;SDS011;6471;50.932;6.934;2023-07-30T00:24:42;1.60;;;1.40;;
12812;SDS011;6471;50.932;6.934;2023-07-30T00:27:08;1.73;;;1.20;;
12812;SDS011;6471;50.932;6.934;2023-07-30T00:29:34;1.30;;;1.20;;
12812;SDS011;6471;50.932;6.934;2023-07-30T00:32:00;1.20;;;1.10;;
12812;SDS011;6471;50.932;6.934;2023-07-30T00:34:26;2.03;;;1.30;;
12812;SDS011;6471;50.932;6.934;2023-07-30T00:36:52;1.40;;;1.30;;
12812;SDS011;6471;50.932;6.934;2023-07-30T00:39:18;1.20;;;1.10;;
12812;SDS011;6471;50.932;6.934;2023-07-30T00:41:44;2.23;;;1.40;;
12812;SDS011;6471;50.932;6.934;2023-07-30T00:44:11;1.13;;;1.03;;
12812;SDS011;6471;50.932;6.934;2023-07-30T00:46:37;1.07;;;0.97;;
12812;SDS011;6471;50.932;6.934;2023-07-30T00:49:03;1.23;;;1.13;;
12812;SDS011;6471;50.932;6.934;2023-07-30T00:51:29;1.50;;;1.30;;
12812;SDS011;6471;50.932;6.934;2023-07-30T00:53:57;1.60;;;1.30;;
12812;SDS011;6471;50.932;6.934;2023-07-30T00:56:23;1.87;;;1.30;;
12812;SDS011;6471;50.932;6.934;2023-07-30T00:58:49;1.50;;;1.40;;
12812;SDS011;6471;50.932;6.934;2023-07-30T01:01:15;1.50;;;1.40;;
12812;SDS011;6471;50.932;6.934;2023-07-30T01:03:41;1.30;;;1.20;;
12812;SDS011;6471;50.932;6.934;2023-07-30T01:06:07;1.30;;;1.20;;
12812;SDS011;6471;50.932;6.934;2023-07-30T01:08:33;1.33;;;1.20;;
12812;SDS011;6471;50.932;6.934;2023-07-30T01:11:00;1.30;;;1.20;;
12812;SDS011;6471;50.932;6.934;2023-07-30T01:13:27;1.47;;;1.20;;
12812;SDS011;6471;50.932;6.934;2023-07-30T01:15:54;1.30;;;1.20;;
12812;SDS011;6471;50.932;6.934;2023-07-30T01:18:20;1.57;;;1.47;;
12812;SDS011;6471;50.932;6.934;2023-07-30T01:20:46;1.50;;;1.40;;
12812;SDS011;6471;50.932;6.934;2023-07-30T01:23:12;1.30;;;1.20;;
12812;SDS011;6471;50.932;6.934;2023-07-30T01:25:38;1.70;;;1.50;;
12812;SDS011;6471;50.932;6.934;2023-07-30T01:28:05;1.30;;;1.20;;
12812;SDS011;6471;50.932;6.934;2023-07-30T01:30:34;1.50;;;1.40;;
12812;SDS011;6471;50.932;6.934;2023-07-30T01:33:04;1.40;;;1.30;;
12812;SDS011;6471;50.932;6.934;2023-07-30T01:35:30;1.30;;;1.20;;
12812;SDS011;6471;50.932;6.934;2023-07-30T01:37:57;1.33;;;1.13;;
12812;SDS011;6471;50.932;6.934;2023-07-30T01:40:24;1.73;;;1.30;;
12812;SDS011;6471;50.932;6.934;2023-07-30T01:42:50;1.33;;;1.20;;
12812;SDS011;6471;50.932;6.934;2023-07-30T01:45:17;1.50;;;1.30;;
12812;SDS011;6471;50.932;6.934;2023-07-30T01:47:43;1.43;;;1.30;;
12812;SDS011;6471;50.932;6.934;2023-07-30T01:50:09;1.63;;;1.30;;
12812;SDS011;6471;50.932;6.934;2023-07-30T01:52:35;1.20;;;1.10;;
12812;SDS011;6471;50.932;6.934;2023-07-30T01:55:01;1.30;;;1.20;;
12812;SDS011;6471;50.932;6.934;2023-07-30T01:57:28;1.50;;;1.20;;
12812;SDS011;6471;50.932;6.934;2023-07-30T01:59:54;1.33;;;1.20;;
12812;SDS011;6471;50.932;6.934;2023-07-30T02:02:20;1.10;;;1.00;;
12812;SDS011;6471;50.932;6.934;2023-07-30T02:04:46;1.20;;;1.10;;
12812;SDS011;6471;50.932;6.934;2023-07-30T02:07:12;1.87;;;1.10;;
12812;SDS011;6471;50.932;6.934;2023-07-30T02:09:38;1.60;;;1.20;;
12812;SDS011;6471;50.932;6.934;2023-07-30T02:12:04;1.30;;;1.20;;
12812;SDS011;6471;50.932;6.934;2023-07-30T02:14:30;1.63;;;1.30;;
12812;SDS011;6471;50.932;6.934;2023-07-30T02:16:56;1.60;;;1.37;;
12812;SDS011;6471;50.932;6.934;2023-07-30T02:19:22;1.40;;;1.30;;
12812;SDS011;6471;50.932;6.934;2023-07-30T02:21:48;1.43;;;1.20;;
12812;SDS011;6471;50.932;6.934;2023-07-30T02:24:14;1.73;;;1.30;;
12812;SDS011;6471;50.932;6.934;2023-07-30T02:26:40;1.70;;;1.30;;
12812;SDS011;6471;50.932;6.934;2023-07-30T02:29:06;1.40;;;1.30;;
12812;SDS011;6471;50.932;6.934;2023-07-30T02:31:32;1.33;;;1.10;;
12812;SDS011;6471;50.932;6.934;2023-07-30T02:33:58;1.50;;;1.27;;
12812;SDS011;6471;50.932;6.934;2023-07-30T02:36:24;1.40;;;1.20;;
12812;SDS011;6471;50.932;6.934;2023-07-30T02:38:51;1.40;;;1.10;;
12812;SDS011;6471;50.932;6.934;2023-07-30T02:41:17;1.33;;;1.23;;
12812;SDS011;6471;50.932;6.934;2023-07-30T02:43:43;1.20;;;1.10;;
12812;SDS011;6471;50.932;6.934;2023-07-30T02:46:09;1.50;;;1.23;;
12812;SDS011;6471;50.932;6.934;2023-07-30T02:48:35;1.43;;;1.33;;
12812;SDS011;6471;50.932;6.934;2023-07-30T02:51:01;1.43;;;1.23;;
12812;SDS011;6471;50.932;6.934;2023-07-30T02:53:27;1.30;;;1.20;;
12812;SDS011;6471;50.932;6.934;2023-07-30T02:55:53;1.60;;;1.30;;
12812;SDS011;6471;50.932;6.934;2023-07-30T02:58:19;1.20;;;1.10;;
12812;SDS011;6471;50.932;6.934;2023-07-30T03:00:45;1.33;;;1.20;;
12812;SDS011;6471;50.932;6.934;2023-07-30T03:03:11;1.80;;;1.20;;
12812;SDS011;6471;50.932;6.934;2023-07-30T03:05:39;1.60;;;1.30;;
12812;SDS011;6471;50.932;6.934;2023-07-30T03:08:07;1.57;;;1.20;;
12812;SDS011;6471;50.932;6.934;2023-07-30T03:10:33;1.60;;;1.30;;
12812;SDS011;6471;50.932;6.934;2023-07-30T03:12:59;1.57;;;1.40;;
12812;SDS011;6471;50.932;6.934;2023-07-30T03:15:26;2.53;;;1.60;;
12812;SDS011;6471;50.932;6.934;2023-07-30T03:17:52;1.80;;;1.60;;
12812;SDS011;6471;50.932;6.934;2023-07-30T03:20:18;1.97;;;1.60;;
12812;SDS011;6471;50.932;6.934;2023-07-30T03:22:45;1.30;;;1.20;;
12812;SDS011;6471;50.932;6.934;2023-07-30T03:25:11;2.53;;;1.60;;
12812;SDS011;6471;50.932;6.934;2023-07-30T03:27:37;2.40;;;1.60;;
12812;SDS011;6471;50.932;6.934;2023-07-30T03:30:03;1.30;;;1.20;;
12812;SDS011;6471;50.932;6.934;2023-07-30T03:32:29;1.87;;;1.47;;
12812;SDS011;6471;50.932;6.934;2023-07-30T03:34:55;1.60;;;1.20;;
12812;SDS011;6471;50.932;6.934;2023-07-30T03:37:21;1.63;;;1.40;;
12812;SDS011;6471;50.932;6.934;2023-07-30T03:39:47;1.80;;;1.40;;
12812;SDS011;6471;50.932;6.934;2023-07-30T03:42:13;1.53;;;1.30;;
12812;SDS011;6471;50.932;6.934;2023-07-30T03:44:39;1.77;;;1.40;;
12812;SDS011;6471;50.932;6.934;2023-07-30T03:47:05;2.13;;;1.67;;
12812;SDS011;6471;50.932;6.934;2023-07-30T03:49:31;2.33;;;1.40;;
12812;SDS011;6471;50.932;6.934;2023-07-30T03:51:57;1.80;;;1.40;;
12812;SDS011;6471;50.932;6.934;2023-07-30T03:54:23;1.83;;;1.33;;
12812;SDS011;6471;50.932;6.934;2023-07-30T03:56:50;2.80;;;1.60;;
12812;SDS011;6471;50.932;6.934;2023-07-30T03:59:16;2.13;;;1.50;;
12812;SDS011;6471;50.932;6.934;2023-07-30T04:01:42;1.73;;;1.40;;
12812;SDS011;6471;50.932;6.934;2023-07-30T04:04:08;2.63;;;1.50;;
12812;SDS011;6471;50.932;6.934;2023-07-30T04:06:34;2.47;;;1.53;;
12812;SDS011;6471;50.932;6.934;2023-07-30T04:09:00;1.90;;;1.57;;
12812;SDS011;6471;50.932;6.934;2023-07-30T04:11:26;1.80;;;1.47;;
12812;SDS011;6471;50.932;6.934;2023-07-30T04:13:52;1.87;;;1.50;;
12812;SDS011;6471;50.932;6.934;2023-07-30T04:16:18;1.90;;;1.40;;
12812;SDS011;6471;50.932;6.934;2023-07-30T04:18:44;1.60;;;1.50;;
12812;SDS011;6471;50.932;6.934;2023-07-30T04:21:10;1.37;;;1.10;;
12812;SDS011;6471;50.932;6.934;2023-07-30T04:23:36;1.60;;;1.20;;
12812;SDS011;6471;50.932;6.934;2023-07-30T04:26:02;1.53;;;1.30;;
12812;SDS011;6471;50.932;6.934;2023-07-30T04:28:28;1.90;;;1.50;;
12812;SDS011;6471;50.932;6.934;2023-07-30T04:30:54;2.70;;;1.67;;
12812;SDS011;6471;50.932;6.934;2023-07-30T04:33:20;1.67;;;1.50;;
12812;SDS011;6471;50.932;6.934;2023-07-30T04:35:46;1.43;;;1.30;;
12812;SDS011;6471;50.932;6.934;2023-07-30T04:38:12;2.87;;;1.80;;
12812;SDS011;6471;50.932;6.934;2023-07-30T04:40:39;3.17;;;1.70;;
12812;SDS011;6471;50.932;6.934;2023-07-30T04:43:05;2.00;;;1.53;;
12812;SDS011;6471;50.932;6.934;2023-07-30T04:45:31;2.23;;;1.87;;
12812;SDS011;6471;50.932;6.934;2023-07-30T04:47:57;2.97;;;1.73;;
12812;SDS011;6471;50.932;6.934;2023-07-30T04:50:23;3.47;;;1.70;;
12812;SDS011;6471;50.932;6.934;2023-07-30T04:52:49;2.93;;;1.50;;
12812;SDS011;6471;50.932;6.934;2023-07-30T04:55:15;2.17;;;1.50;;
12812;SDS011;6471;50.932;6.934;2023-07-30T04:57:41;3.70;;;1.60;;
12812;SDS011;6471;50.932;6.934;2023-07-30T05:00:07;3.23;;;1.50;;
12812;SDS011;6471;50.932;6.934;2023-07-30T05:02:33;3.07;;;1.50;;
12812;SDS011;6471;50.932;6.934;2023-07-30T05:04:59;3.30;;;1.70;;
12812;SDS011;6471;50.932;6.934;2023-07-30T05:07:25;3.73;;;1.60;;
12812;SDS011;6471;50.932;6.934;2023-07-30T05:09:51;2.80;;;1.80;;
12812;SDS011;6471;50.932;6.934;2023-07-30T05:12:17;3.13;;;1.57;;
12812;SDS011;6471;50.932;6.934;2023-07-30T05:14:43;2.23;;;1.40;;
12812;SDS011;6471;50.932;6.934;2023-07-30T05:17:09;3.60;;;1.53;;
12812;SDS011;6471;50.932;6.934;2023-07-30T05:19:35;2.30;;;1.70;;
12812;SDS011;6471;50.932;6.934;2023-07-30T05:22:01;2.60;;;1.63;;
12812;SDS011;6471;50.932;6.934;2023-07-30T05:24:28;3.80;;;1.70;;
12812;SDS011;6471;50.932;6.934;2023-07-30T05:26:54;3.10;;;1.67;;
12812;SDS011;6471;50.932;6.934;2023-07-30T05:29:20;2.70;;;1.57;;
12812;SDS011;6471;50.932;6.934;2023-07-30T05:31:46;2.23;;;1.40;;
12812;SDS011;6471;50.932;6.934;2023-07-30T05:34:12;3.50;;;1.60;;
12812;SDS011;6471;50.932;6.934;2023-07-30T05:36:38;2.60;;;1.60;;
12812;SDS011;6471;50.932;6.934;2023-07-30T05:39:04;3.60;;;1.57;;
12812;SDS011;6471;50.932;6.934;2023-07-30T05:41:30;3.53;;;1.50;;
12812;SDS011;6471;50.932;6.934;2023-07-30T05:43:56;4.77;;;1.73;;
12812;SDS011;6471;50.932;6.934;2023-07-30T05:46:22;4.20;;;1.70;;
12812;SDS011;6471;50.932;6.934;2023-07-30T05:48:48;4.03;;;1.87;;
12812;SDS011;6471;50.932;6.934;2023-07-30T05:51:14;2.67;;;1.70;;
12812;SDS011;6471;50.932;6.934;2023-07-30T05:53:40;2.03;;;1.50;;
12812;SDS011;6471;50.932;6.934;2023-07-30T05:56:06;1.93;;;1.47;;
12812;SDS011;6471;50.932;6.934;2023-07-30T05:58:32;2.00;;;1.33;;
12812;SDS011;6471;50.932;6.934;2023-07-30T06:00:58;1.93;;;1.23;;
12812;SDS011;6471;50.932;6.934;2023-07-30T06:03:24;2.77;;;1.30;;
12812;SDS011;6471;50.932;6.934;2023-07-30T06:05:50;1.67;;;1.10;;
12812;SDS011;6471;50.932;6.934;2023-07-30T06:08:16;2.07;;;1.37;;
12812;SDS011;6471;50.932;6.934;2023-07-30T06:10:43;2.87;;;1.63;;
12812;SDS011;6471;50.932;6.934;2023-07-30T06:13:09;2.57;;;1.60;;
12812;SDS011;6471;50.932;6.934;2023-07-30T06:15:35;2.43;;;1.60;;
12812;SDS011;6471;50.932;6.934;2023-07-30T06:18:04;1.97;;;1.30;;
12812;SDS011;6471;50.932;6.934;2023-07-30T06:20:30;3.37;;;1.43;;
12812;SDS011;6471;50.932;6.934;2023-07-30T06:22:56;2.83;;;1.40;;
12812;SDS011;6471;50.932;6.934;2023-07-30T06:25:23;1.93;;;1.40;;
12812;SDS011;6471;50.932;6.934;2023-07-30T06:27:49;3.27;;;1.57;;
12812;SDS011;6471;50.932;6.934;2023-07-30T06:30:16;2.57;;;1.57;;
12812;SDS011;6471;50.932;6.934;2023-07-30T06:32:45;2.63;;;1.50;;
12812;SDS011;6471;50.932;6.934;2023-07-30T06:35:11;3.47;;;1.50;;
12812;SDS011;6471;50.932;6.934;2023-07-30T06:37:37;2.93;;;1.50;;
12812;SDS011;6471;50.932;6.934;2023-07-30T06:40:03;3.20;;;1.70;;
12812;SDS011;6471;50.932;6.934;2023-07-30T06:42:31;2.10;;;1.33;;
12812;SDS011;6471;50.932;6.934;2023-07-30T06:44:57;2.17;;;1.50;;
12812;SDS011;6471;50.932;6.934;2023-07-30T06:47:23;2.33;;;1.40;;
12812;SDS011;6471;50.932;6.934;2023-07-30T06:49:49;2.10;;;1.30;;
12812;SDS011;6471;50.932;6.934;2023-07-30T06:52:15;2.43;;;1.40;;
12812;SDS011;6471;50.932;6.934;2023-07-30T06:54:41;1.50;;;1.20;;
12812;SDS011;6471;50.932;6.934;2023-07-30T06:57:07;2.80;;;1.20;;
12812;SDS011;6471;50.932;6.934;2023-07-30T06:59:33;1.30;;;1.10;;
12812;SDS011;6471;50.932;6.934;2023-07-30T07:02:00;1.67;;;1.13;;
12812;SDS011;6471;50.932;6.934;2023-07-30T07:04:26;1.90;;;1.13;;
12812;SDS011;6471;50.932;6.934;2023-07-30T07:06:52;1.37;;;1.00;;
12812;SDS011;6471;50.932;6.934;2023-07-30T07:09:18;1.20;;;1.00;;
12812;SDS011;6471;50.932;6.934;2023-07-30T07:11:44;1.83;;;1.20;;
12812;SDS011;6471;50.932;6.934;2023-07-30T07:14:10;2.37;;;1.10;;
12812;SDS011;6471;50.932;6.934;2023-07-30T07:16:36;1.97;;;1.20;;
12812;SDS011;6471;50.932;6.934;2023-07-30T07:19:02;1.80;;;1.27;;
12812;SDS011;6471;50.932;6.934;2023-07-30T07:21:28;1.07;;;0.97;;
12812;SDS011;6471;50.932;6.934;2023-07-30T07:23:54;1.50;;;1.07;;
12812;SDS011;6471;50.932;6.934;2023-07-30T07:26:20;1.27;;;1.00;;
12812;SDS011;6471;50.932;6.934;2023-07-30T07:28:46;4.17;;;1.20;;
12812;SDS011;6471;50.932;6.934;2023-07-30T07:31:12;2.57;;;1.47;;
12812;SDS011;6471;50.932;6.934;2023-07-30T07:33:39;3.50;;;1.67;;
12812;SDS011;6471;50.932;6.934;2023-07-30T07:36:05;2.60;;;1.47;;
12812;SDS011;6471;50.932;6.934;2023-07-30T07:38:32;3.40;;;1.77;;
12812;SDS011;6471;50.932;6.934;2023-07-30T07:40:59;3.90;;;1.37;;
12812;SDS011;6471;50.932;6.934;2023-07-30T07:43:25;2.90;;;1.40;;
12812;SDS011;6471;50.932;6.934;2023-07-30T07:45:51;3.70;;;1.80;;
12812;SDS011;6471;50.932;6.934;2023-07-30T07:48:17;3.73;;;1.63;;
12812;SDS011;6471;50.932;6.934;2023-07-30T07:50:44;2.30;;;1.60;;
12812;SDS011;6471;50.932;6.934;2023-07-30T07:53:11;3.70;;;1.60;;
12812;SDS011;6471;50.932;6.934;2023-07-30T07:55:37;3.30;;;1.60;;
12812;SDS011;6471;50.932;6.934;2023-07-30T07:58:03;5.17;;;1.60;;
12812;SDS011;6471;50.932;6.934;2023-07-30T08:00:29;2.87;;;1.30;;
12812;SDS011;6471;50.932;6.934;2023-07-30T08:02:55;2.67;;;1.27;;
12812;SDS011;6471;50.932;6.934;2023-07-30T08:05:21;2.97;;;1.40;;
12812;SDS011;6471;50.932;6.934;2023-07-30T08:07:49;3.13;;;1.60;;
12812;SDS011;6471;50.932;6.934;2023-07-30T08:10:15;3.03;;;1.70;;
12812;SDS011;6471;50.932;6.934;2023-07-30T08:12:42;3.83;;;1.70;;
12812;SDS011;6471;50.932;6.934;2023-07-30T08:15:08;2.80;;;1.60;;
12812;SDS011;6471;50.932;6.934;2023-07-30T08:17:34;3.47;;;1.77;;
12812;SDS011;6471;50.932;6.934;2023-07-30T08:20:00;5.50;;;2.13;;
12812;SDS011;6471;50.932;6.934;2023-07-30T08:22:27;3.07;;;1.80;;
12812;SDS011;6471;50.932;6.934;2023-07-30T08:24:53;4.07;;;1.80;;
12812;SDS011;6471;50.932;6.934;2023-07-30T08:27:19;4.07;;;1.90;;
12812;SDS011;6471;50.932;6.934;2023-07-30T08:29:45;5.03;;;1.90;;
12812;SDS011;6471;50.932;6.934;2023-07-30T08:32:11;5.33;;;1.70;;
12812;SDS011;6471;50.932;6.934;2023-07-30T08:34:37;5.77;;;2.20;;
12812;SDS011;6471;50.932;6.934;2023-07-30T08:37:04;5.17;;;2.03;;
12812;SDS011;6471;50.932;6.934;2023-07-30T08:39:30;3.83;;;1.80;;
12812;SDS011;6471;50.932;6.934;2023-07-30T08:41:56;3.93;;;2.23;;
12812;SDS011;6471;50.932;6.934;2023-07-30T08:44:22;4.77;;;2.17;;
12812;SDS011;6471;50.932;6.934;2023-07-30T08:46:48;3.57;;;1.70;;
12812;SDS011;6471;50.932;6.934;2023-07-30T08:49:14;4.23;;;1.70;;
12812;SDS011;6471;50.932;6.934;2023-07-30T08:51:40;4.83;;;2.00;;
12812;SDS011;6471;50.932;6.934;2023-07-30T08:54:07;4.47;;;2.10;;
12812;SDS011;6471;50.932;6.934;2023-07-30T08:56:34;6.23;;;2.20;;
12812;SDS011;6471;50.932;6.934;2023-07-30T08:59:01;6.73;;;2.00;;
12812;SDS011;6471;50.932;6.934;2023-07-30T09:01:30;6.27;;;2.00;;
12812;SDS011;6471;50.932;6.934;2023-07-30T09:03:57;5.93;;;1.90;;
12812;SDS011;6471;50.932;6.934;2023-07-30T09:06:27;4.57;;;1.60;;
12812;SDS011;6471;50.932;6.934;2023-07-30T09:08:53;5.93;;;2.10;;
12812;SDS011;6471;50.932;6.934;2023-07-30T09:11:19;5.77;;;2.03;;
12812;SDS011;6471;50.932;6.934;2023-07-30T09:13:45;4.57;;;1.93;;
12812;SDS011;6471;50.932;6.934;2023-07-30T09:16:12;3.80;;;1.80;;
12812;SDS011;6471;50.932;6.934;2023-07-30T09:18:39;5.43;;;1.80;;
12812;SDS011;6471;50.932;6.934;2023-07-30T09:21:05;4.03;;;1.77;;
12812;SDS011;6471;50.932;6.934;2023-07-30T09:23:31;4.47;;;1.70;;
12812;SDS011;6471;50.932;6.934;2023-07-30T09:25:58;4.10;;;1.60;;
12812;SDS011;6471;50.932;6.934;2023-07-30T09:28:32;5.50;;;2.00;;
12812;SDS011;6471;50.932;6.934;2023-07-30T09:31:06;4.57;;;1.90;;
12812;SDS011;6471;50.932;6.934;2023-07-30T09:33:33;6.03;;;1.90;;
12812;SDS011;6471;50.932;6.934;2023-07-30T09:36:03;3.33;;;1.90;;
12812;SDS011;6471;50.932;6.934;2023-07-30T09:38:29;2.40;;;1.40;;
12812;SDS011;6471;50.932;6.934;2023-07-30T09:41:01;3.10;;;1.60;;
12812;SDS011;6471;50.932;6.934;2023-07-30T09:43:34;2.63;;;1.50;;
12812;SDS011;6471;50.932;6.934;2023-07-30T09:46:05;3.03;;;2.10;;
12812;SDS011;6471;50.932;6.934;2023-07-30T09:48:32;5.90;;;2.10;;
12812;SDS011;6471;50.932;6.934;2023-07-30T09:50:59;4.03;;;2.13;;
12812;SDS011;6471;50.932;6.934;2023-07-30T09:53:27;2.87;;;1.77;;
12812;SDS011;6471;50.932;6.934;2023-07-30T09:55:54;4.83;;;1.70;;
12812;SDS011;6471;50.932;6.934;2023-07-30T09:58:20;4.87;;;1.70;;
12812;SDS011;6471;50.932;6.934;2023-07-30T10:00:46;3.47;;;1.70;;
12812;SDS011;6471;50.932;6.934;2023-07-30T10:03:14;5.13;;;1.90;;
12812;SDS011;6471;50.932;6.934;2023-07-30T10:05:41;5.53;;;1.90;;
12812;SDS011;6471;50.932;6.934;2023-07-30T10:08:11;2.67;;;1.63;;
12812;SDS011;6471;50.932;6.934;2023-07-30T10:10:39;4.13;;;1.63;;
12812;SDS011;6471;50.932;6.934;2023-07-30T10:13:06;3.80;;;1.83;;
12812;SDS011;6471;50.932;6.934;2023-07-30T10:15:34;5.03;;;1.90;;
12812;SDS011;6471;50.932;6.934;2023-07-30T10:18:00;5.07;;;1.90;;
12812;SDS011;6471;50.932;6.934;2023-07-30T10:20:27;5.93;;;2.00;;
12812;SDS011;6471;50.932;6.934;2023-07-30T10:22:55;7.13;;;1.97;;
12812;SDS011;6471;50.932;6.934;2023-07-30T10:25:22;5.10;;;2.00;;
12812;SDS011;6471;50.932;6.934;2023-07-30T10:27:51;5.57;;;1.80;;
12812;SDS011;6471;50.932;6.934;2023-07-30T10:30:18;4.07;;;1.93;;
12812;SDS011;6471;50.932;6.934;2023-07-30T10:38:44;3.33;;;1.40;;
12812;SDS011;6471;50.932;6.934;2023-07-30T10:41:26;3.97;;;1.70;;
12812;SDS011;6471;50.932;6.934;2023-07-30T10:43:48;3.03;;;1.43;;
12812;SDS011;6471;50.932;6.934;2023-07-30T10:46:15;3.80;;;1.73;;
12812;SDS011;6471;50.932;6.934;2023-07-30T10:48:42;2.87;;;1.40;;
12812;SDS011;6471;50.932;6.934;2023-07-30T10:51:10;2.50;;;1.63;;
12812;SDS011;6471;50.932;6.934;2023-07-30T10:53:37;3.43;;;1.50;;
12812;SDS011;6471;50.932;6.934;2023-07-30T10:56:04;4.13;;;1.50;;
12812;SDS011;6471;50.932;6.934;2023-07-30T10:58:31;3.27;;;1.60;;
12812;SDS011;6471;50.932;6.934;2023-07-30T11:00:57;2.97;;;1.50;;
12812;SDS011;6471;50.932;6.934;2023-07-30T11:03:24;3.43;;;1.60;;
12812;SDS011;6471;50.932;6.934;2023-07-30T11:05:51;1.90;;;1.40;;
12812;SDS011;6471;50.932;6.934;2023-07-30T11:08:17;2.20;;;1.47;;
12812;SDS011;6471;50.932;6.934;2023-07-30T11:10:44;3.07;;;1.40;;
12812;SDS011;6471;50.932;6.934;2023-07-30T11:13:12;4.20;;;1.60;;
12812;SDS011;6471;50.932;6.934;2023-07-30T11:15:41;2.60;;;1.60;;
12812;SDS011;6471;50.932;6.934;2023-07-30T11:18:08;5.97;;;1.50;;
12812;SDS011;6471;50.932;6.934;2023-07-30T11:20:34;3.87;;;1.70;;
12812;SDS011;6471;50.932;6.934;2023-07-30T11:23:16;3.50;;;1.40;;
12812;SDS011;6471;50.932;6.934;2023-07-30T11:25:45;1.97;;;1.50;;
12812;SDS011;6471;50.932;6.934;2023-07-30T11:28:11;4.17;;;1.40;;
12812;SDS011;6471;50.932;6.934;2023-07-30T11:30:37;3.03;;;1.40;;
12812;SDS011;6471;50.932;6.934;2023-07-30T11:33:04;2.67;;;1.37;;
12812;SDS011;6471;50.932;6.934;2023-07-30T11:35:30;2.63;;;1.40;;
12812;SDS011;6471;50.932;6.934;2023-07-30T11:37:56;4.20;;;1.60;;
12812;SDS011;6471;50.932;6.934;2023-07-30T11:40:23;2.03;;;1.20;;
12812;SDS011;6471;50.932;6.934;2023-07-30T11:42:49;2.53;;;1.33;;
12812;SDS011;6471;50.932;6.934;2023-07-30T11:45:19;3.27;;;1.30;;
12812;SDS011;6471;50.932;6.934;2023-07-30T11:47:46;3.17;;;1.33;;
12812;SDS011;6471;50.932;6.934;2023-07-30T11:50:12;4.63;;;1.63;;
12812;SDS011;6471;50.932;6.934;2023-07-30T11:55:24;2.30;;;1.30;;
12812;SDS011;6471;50.932;6.934;2023-07-30T11:58:02;3.10;;;1.20;;
12812;SDS011;6471;50.932;6.934;2023-07-30T12:00:28;2.53;;;1.40;;
12812;SDS011;6471;50.932;6.934;2023-07-30T12:02:56;2.53;;;1.40;;
12812;SDS011;6471;50.932;6.934;2023-07-30T12:05:31;4.37;;;1.40;;
12812;SDS011;6471;50.932;6.934;2023-07-30T12:07:58;6.10;;;1.60;;
12812;SDS011;6471;50.932;6.934;2023-07-30T12:10:27;3.50;;;1.50;;
12812;SDS011;6471;50.932;6.934;2023-07-30T12:12:53;4.23;;;1.60;;
12812;SDS011;6471;50.932;6.934;2023-07-30T12:15:19;5.47;;;1.73;;
12812;SDS011;6471;50.932;6.934;2023-07-30T12:17:47;6.57;;;1.70;;
12812;SDS011;6471;50.932;6.934;2023-07-30T12:20:16;5.10;;;1.57;;
12812;SDS011;6471;50.932;6.934;2023-07-30T12:22:42;5.30;;;1.70;;
12812;SDS011;6471;50.932;6.934;2023-07-30T12:25:09;7.33;;;1.70;;
12812;SDS011;6471;50.932;6.934;2023-07-30T12:27:35;5.70;;;1.80;;
12812;SDS011;6471;50.932;6.934;2023-07-30T12:30:01;4.73;;;1.70;;
12812;SDS011;6471;50.932;6.934;2023-07-30T12:32:28;6.47;;;1.90;;
12812;SDS011;6471;50.932;6.934;2023-07-30T12:34:54;3.53;;;1.60;;
12812;SDS011;6471;50.932;6.934;2023-07-30T12:37:20;5.23;;;1.70;;
12812;SDS011;6471;50.932;6.934;2023-07-30T12:39:46;5.53;;;1.70;;
12812;SDS011;6471;50.932;6.934;2023-07-30T12:42:13;3.13;;;1.50;;
12812;SDS011;6471;50.932;6.934;2023-07-30T12:44:39;5.73;;;1.77;;
12812;SDS011;6471;50.932;6.934;2023-07-30T12:47:05;5.57;;;1.90;;
12812;SDS011;6471;50.932;6.934;2023-07-30T12:49:31;5.30;;;1.73;;
12812;SDS011;6471;50.932;6.934;2023-07-30T12:51:57;4.40;;;1.60;;
12812;SDS011;6471;50.932;6.934;2023-07-30T12:54:23;6.57;;;2.03;;
12812;SDS011;6471;50.932;6.934;2023-07-30T12:56:49;4.53;;;1.87;;
12812;SDS011;6471;50.932;6.934;2023-07-30T12:59:15;5.53;;;1.87;;
12812;SDS011;6471;50.932;6.934;2023-07-30T13:01:41;4.43;;;2.00;;
12812;SDS011;6471;50.932;6.934;2023-07-30T13:04:07;6.97;;;1.83;;
12812;SDS011;6471;50.932;6.934;2023-07-30T13:06:33;4.00;;;1.60;;
12812;SDS011;6471;50.932;6.934;2023-07-30T13:08:59;3.50;;;1.70;;
12812;SDS011;6471;50.932;6.934;2023-07-30T13:11:25;3.77;;;1.60;;
12812;SDS011;6471;50.932;6.934;2023-07-30T13:13:51;6.17;;;1.70;;
12812;SDS011;6471;50.932;6.934;2023-07-30T13:16:17;2.07;;;1.50;;
12812;SDS011;6471;50.932;6.934;2023-07-30T13:18:43;5.37;;;2.10;;
12812;SDS011;6471;50.932;6.934;2023-07-30T13:21:09;3.77;;;1.43;;
12812;SDS011;6471;50.932;6.934;2023-07-30T13:23:35;5.33;;;1.90;;
12812;SDS011;6471;50.932;6.934;2023-07-30T13:26:01;4.93;;;1.80;;
12812;SDS011;6471;50.932;6.934;2023-07-30T13:28:28;5.07;;;1.60;;
12812;SDS011;6471;50.932;6.934;2023-07-30T13:30:54;5.10;;;1.87;;
12812;SDS011;6471;50.932;6.934;2023-07-30T13:33:21;3.83;;;1.70;;
12812;SDS011;6471;50.932;6.934;2023-07-30T13:35:48;2.53;;;1.40;;
12812;SDS011;6471;50.932;6.934;2023-07-30T13:38:14;4.37;;;1.60;;
12812;SDS011;6471;50.932;6.934;2023-07-30T13:40:40;3.97;;;1.70;;
12812;SDS011;6471;50.932;6.934;2023-07-30T13:43:06;3.90;;;1.80;;
12812;SDS011;6471;50.932;6.934;2023-07-30T13:45:32;2.90;;;1.73;;
12812;SDS011;6471;50.932;6.934;2023-07-30T13:47:58;4.93;;;1.60;;
12812;SDS011;6471;50.932;6.934;2023-07-30T13:50:24;4.70;;;1.90;;
12812;SDS011;6471;50.932;6.934;2023-07-30T13:52:52;4.70;;;1.80;;
12812;SDS011;6471;50.932;6.934;2023-07-30T13:55:19;3.60;;;1.50;;
12812;SDS011;6471;50.932;6.934;2023-07-30T13:57:45;3.40;;;1.50;;
12812;SDS011;6471;50.932;6.934;2023-07-30T14:00:11;3.57;;;1.40;;
12812;SDS011;6471;50.932;6.934;2023-07-30T14:02:38;2.90;;;1.40;;
12812;SDS011;6471;50.932;6.934;2023-07-30T14:05:04;3.47;;;1.50;;
12812;SDS011;6471;50.932;6.934;2023-07-30T14:07:30;2.63;;;1.60;;
12812;SDS011;6471;50.932;6.934;2023-07-30T14:09:56;2.70;;;1.40;;
12812;SDS011;6471;50.932;6.934;2023-07-30T14:12:22;3.67;;;1.43;;
12812;SDS011;6471;50.932;6.934;2023-07-30T14:14:48;3.97;;;1.77;;
12812;SDS011;6471;50.932;6.934;2023-07-30T14:17:14;4.43;;;1.83;;
12812;SDS011;6471;50.932;6.934;2023-07-30T14:19:40;3.33;;;1.50;;
12812;SDS011;6471;50.932;6.934;2023-07-30T14:22:06;3.70;;;1.80;;
12812;SDS011;6471;50.932;6.934;2023-07-30T14:24:32;3.47;;;1.40;;
12812;SDS011;6471;50.932;6.934;2023-07-30T14:26:59;4.03;;;1.73;;
12812;SDS011;6471;50.932;6.934;2023-07-30T14:29:25;4.00;;;1.70;;
12812;SDS011;6471;50.932;6.934;2023-07-30T14:31:51;4.60;;;1.43;;
12812;SDS011;6471;50.932;6.934;2023-07-30T14:34:17;2.83;;;1.30;;
12812;SDS011;6471;50.932;6.934;2023-07-30T14:36:43;3.07;;;1.40;;
12812;SDS011;6471;50.932;6.934;2023-07-30T14:39:09;3.53;;;1.53;;
12812;SDS011;6471;50.932;6.934;2023-07-30T14:41:35;4.80;;;1.70;;
12812;SDS011;6471;50.932;6.934;2023-07-30T14:44:01;5.07;;;1.60;;
12812;SDS011;6471;50.932;6.934;2023-07-30T14:46:28;3.70;;;1.60;;
12812;SDS011;6471;50.932;6.934;2023-07-30T14:48:54;4.23;;;1.63;;
12812;SDS011;6471;50.932;6.934;2023-07-30T14:51:20;3.63;;;1.40;;
12812;SDS011;6471;50.932;6.934;2023-07-30T14:53:46;4.77;;;1.50;;
12812;SDS011;6471;50.932;6.934;2023-07-30T14:56:12;4.03;;;1.90;;
12812;SDS011;6471;50.932;6.934;2023-07-30T14:58:38;4.53;;;1.63;;
12812;SDS011;6471;50.932;6.934;2023-07-30T15:01:04;3.43;;;1.90;;
12812;SDS011;6471;50.932;6.934;2023-07-30T15:03:30;2.40;;;1.50;;